createdAt,value
2019-03-04T00:01:57.689Z,4.17
2019-03-04T00:04:28.826Z,3.37
2019-03-04T00:06:59.852Z,3.87
2019-03-04T00:09:31.312Z,3.70
2019-03-04T00:12:02.425Z,3.30
2019-03-04T00:14:33.471Z,2.63
2019-03-04T00:17:04.661Z,3.03
2019-03-04T00:19:36.348Z,3.30
2019-03-04T00:22:07.987Z,2.23
2019-03-04T00:24:38.788Z,2.60
2019-03-04T00:27:10.268Z,2.67
2019-03-04T00:29:41.260Z,2.90
2019-03-04T00:32:12.151Z,2.23
2019-03-04T00:34:51.865Z,2.50
2019-03-04T00:37:23.237Z,2.40
2019-03-04T00:39:54.234Z,2.13
2019-03-04T00:42:26.102Z,2.43
2019-03-04T00:44:57.270Z,2.50
2019-03-04T00:47:28.276Z,2.70
2019-03-04T00:49:59.165Z,3.07
2019-03-04T00:52:30.588Z,2.70
2019-03-04T00:55:01.555Z,2.60
2019-03-04T00:57:32.461Z,3.20
2019-03-04T01:00:03.517Z,3.10
2019-03-04T01:02:36.438Z,2.70
2019-03-04T01:05:08.315Z,2.40
2019-03-04T01:07:39.538Z,2.50
2019-03-04T01:10:11.167Z,1.97
2019-03-04T01:12:42.945Z,2.63
2019-03-04T01:15:16.950Z,2.73
2019-03-04T01:17:49.304Z,2.83
2019-03-04T01:20:23.631Z,2.80
2019-03-04T01:22:59.016Z,2.37
2019-03-04T01:25:32.836Z,2.57
2019-03-04T01:28:04.051Z,2.23
2019-03-04T01:30:35.101Z,2.67
2019-03-04T01:33:06.293Z,2.13
2019-03-04T01:35:37.514Z,2.37
2019-03-04T01:38:08.988Z,2.77
2019-03-04T01:40:44.817Z,2.23
2019-03-04T01:43:15.986Z,2.90
2019-03-04T01:45:49.821Z,2.10
2019-03-04T01:48:23.595Z,2.97
2019-03-04T01:50:54.892Z,3.03
2019-03-04T01:53:26.348Z,2.87
2019-03-04T01:55:57.253Z,2.20
2019-03-04T01:58:32.099Z,3.07
2019-03-04T02:01:06.783Z,2.23
2019-03-04T02:03:39.195Z,2.40
2019-03-04T02:06:12.587Z,3.03
2019-03-04T02:08:46.424Z,2.23
2019-03-04T02:11:17.279Z,2.70
2019-03-04T02:13:51.437Z,2.67
2019-03-04T02:16:21.455Z,3.23
2019-03-04T02:18:52.490Z,2.50
2019-03-04T02:21:23.480Z,2.63
2019-03-04T02:23:56.070Z,2.93
2019-03-04T02:26:29.033Z,2.80
2019-03-04T02:28:59.874Z,2.60
2019-03-04T02:31:30.982Z,2.30
2019-03-04T02:34:02.135Z,2.47
2019-03-04T02:36:33.631Z,2.80
2019-03-04T02:39:05.897Z,2.37
2019-03-04T02:41:38.915Z,2.03
2019-03-04T02:44:10.289Z,2.60
2019-03-04T02:46:41.524Z,2.43
2019-03-04T02:49:12.337Z,2.20
2019-03-04T02:51:47.771Z,2.13
2019-03-04T02:54:18.628Z,2.57
2019-03-04T02:56:49.609Z,2.43
2019-03-04T02:59:24.351Z,2.30
2019-03-04T03:01:55.353Z,2.40
2019-03-04T03:04:26.188Z,2.00
2019-03-04T03:06:57.287Z,2.57
2019-03-04T03:09:28.460Z,2.50
2019-03-04T03:11:59.351Z,2.03
2019-03-04T03:14:31.533Z,2.50
2019-03-04T03:17:03.124Z,2.10
2019-03-04T03:19:33.987Z,2.07
2019-03-04T03:22:05.135Z,2.00
2019-03-04T03:24:38.931Z,2.10
2019-03-04T03:27:09.666Z,2.43
2019-03-04T03:29:40.825Z,1.83
2019-03-04T03:32:13.025Z,2.17
2019-03-04T03:34:44.033Z,1.80
2019-03-04T03:37:15.178Z,2.13
2019-03-04T03:39:46.787Z,2.13
2019-03-04T03:42:18.963Z,2.03
2019-03-04T03:44:50.109Z,2.20
2019-03-04T03:47:21.330Z,2.13
2019-03-04T03:49:52.253Z,2.47
2019-03-04T03:52:23.207Z,1.83
2019-03-04T03:54:54.547Z,1.67
2019-03-04T03:57:25.357Z,1.83
2019-03-04T03:59:56.532Z,1.73
2019-03-04T04:02:27.855Z,2.00
2019-03-04T04:05:02.167Z,2.77
2019-03-04T04:07:34.075Z,1.70
2019-03-04T04:10:06.087Z,1.90
2019-03-04T04:12:38.949Z,2.17
2019-03-04T04:15:10.739Z,1.73
2019-03-04T04:17:41.617Z,1.87
2019-03-04T04:20:13.708Z,1.90
2019-03-04T04:22:45.195Z,2.30
2019-03-04T04:25:16.727Z,2.30
2019-03-04T04:27:47.967Z,3.17
2019-03-04T04:30:20.643Z,3.80
2019-03-04T04:32:51.625Z,9.87
2019-03-04T04:35:23.030Z,8.93
2019-03-04T04:37:55.373Z,4.30
2019-03-04T04:40:26.421Z,3.70
2019-03-04T04:42:57.691Z,5.03
2019-03-04T04:45:28.726Z,4.67
2019-03-04T04:47:59.512Z,3.60
2019-03-04T04:50:32.005Z,2.77
2019-03-04T04:53:03.308Z,2.40
2019-03-04T04:55:34.616Z,1.87
2019-03-04T04:58:05.535Z,1.50
2019-03-04T05:00:37.158Z,2.23
2019-03-04T05:03:09.486Z,1.90
2019-03-04T05:05:40.778Z,1.70
2019-03-04T05:08:11.758Z,1.80
2019-03-04T05:10:43.091Z,1.67
2019-03-04T05:13:14.098Z,2.00
2019-03-04T05:15:45.378Z,2.33
2019-03-04T05:18:18.066Z,1.60
2019-03-04T05:20:53.372Z,2.03
2019-03-04T05:23:24.304Z,1.53
2019-03-04T05:25:57.764Z,2.30
2019-03-04T05:31:01.814Z,1.90
2019-03-04T05:33:33.472Z,1.90
2019-03-04T05:36:04.558Z,2.47
2019-03-04T05:38:35.463Z,2.33
2019-03-04T05:41:06.463Z,1.60
2019-03-04T05:43:40.582Z,2.30
2019-03-04T05:46:11.331Z,1.70
2019-03-04T05:48:42.322Z,1.97
2019-03-04T05:51:13.294Z,1.70
2019-03-04T05:53:47.002Z,2.30
2019-03-04T05:56:17.919Z,1.87
2019-03-04T05:58:48.822Z,1.90
2019-03-04T06:01:33.468Z,2.13
2019-03-04T06:04:09.881Z,1.70
2019-03-04T06:07:08.922Z,2.07
2019-03-04T06:09:39.680Z,2.30
2019-03-04T06:12:12.801Z,1.60
2019-03-04T06:14:45.153Z,2.43
2019-03-04T06:17:21.866Z,2.47
2019-03-04T06:19:52.934Z,2.30
2019-03-04T06:22:25.734Z,2.63
2019-03-04T06:24:57.873Z,1.73
2019-03-04T06:27:28.822Z,1.80
2019-03-04T06:29:59.740Z,1.63
2019-03-04T06:32:31.991Z,2.10
2019-03-04T06:35:02.915Z,1.93
2019-03-04T06:37:33.868Z,1.53
2019-03-04T06:40:06.735Z,2.00
2019-03-04T06:42:38.257Z,2.17
2019-03-04T06:45:14.999Z,2.20
2019-03-04T06:47:49.079Z,2.00
2019-03-04T06:50:51.074Z,2.20
2019-03-04T06:53:51.867Z,1.70
2019-03-04T06:56:43.559Z,2.50
2019-03-04T06:59:20.813Z,4.10
2019-03-04T07:01:54.811Z,3.30
2019-03-04T07:04:37.582Z,3.20
2019-03-04T07:07:14.354Z,2.63
2019-03-04T07:09:48.058Z,2.37
2019-03-04T07:12:20.225Z,2.23
2019-03-04T07:14:51.121Z,2.20
2019-03-04T07:17:23.304Z,1.80
2019-03-04T07:20:05.870Z,2.17
2019-03-04T07:22:41.569Z,2.10
2019-03-04T07:25:13.291Z,1.90
2019-03-04T07:27:46.644Z,2.10
2019-03-04T07:30:17.202Z,1.63
2019-03-04T07:32:53.378Z,2.17
2019-03-04T07:35:25.155Z,2.20
2019-03-04T07:38:13.079Z,1.60
2019-03-04T07:40:49.147Z,2.40
2019-03-04T07:43:21.430Z,1.87
2019-03-04T07:45:59.559Z,2.37
2019-03-04T07:48:36.332Z,2.20
2019-03-04T07:51:13.425Z,1.80
2019-03-04T07:53:50.835Z,2.43
2019-03-04T07:56:25.333Z,1.90
2019-03-04T07:58:57.454Z,2.27
2019-03-04T08:01:31.252Z,2.10
2019-03-04T08:04:03.889Z,3.03
2019-03-04T08:06:37.483Z,2.23
2019-03-04T08:09:43.551Z,2.17
2019-03-04T08:12:54.162Z,2.57
2019-03-04T08:15:29.118Z,2.03
2019-03-04T08:18:00.031Z,2.17
2019-03-04T08:20:33.923Z,2.23
2019-03-04T08:23:06.534Z,2.40
2019-03-04T08:25:37.560Z,2.10
2019-03-04T08:28:10.793Z,2.27
2019-03-04T08:30:42.154Z,2.20
2019-03-04T08:33:14.891Z,1.80
2019-03-04T08:35:47.422Z,2.77
2019-03-04T08:38:21.838Z,2.63
2019-03-04T08:40:54.725Z,2.10
2019-03-04T08:43:28.621Z,2.23
2019-03-04T08:45:59.662Z,1.97
2019-03-04T08:48:30.395Z,2.17
2019-03-04T08:51:06.102Z,1.63
2019-03-04T08:53:36.801Z,2.03
2019-03-04T08:56:12.366Z,1.90
2019-03-04T08:58:43.367Z,1.90
2019-03-04T09:01:16.424Z,1.90
2019-03-04T09:03:54.359Z,1.93
2019-03-04T09:06:25.245Z,2.50
2019-03-04T09:09:16.946Z,1.90
2019-03-04T09:11:51.151Z,1.70
2019-03-04T09:14:22.132Z,2.07
2019-03-04T09:16:53.065Z,1.70
2019-03-04T09:19:25.698Z,2.00
2019-03-04T09:22:02.337Z,1.93
2019-03-04T09:24:33.688Z,2.23
2019-03-04T09:27:07.886Z,1.57
2019-03-04T09:29:41.488Z,1.90
2019-03-04T09:32:16.885Z,2.10
2019-03-04T09:34:47.957Z,2.03
2019-03-04T09:37:19.334Z,1.73
2019-03-04T09:39:57.206Z,2.03
2019-03-04T09:42:33.927Z,1.60
2019-03-04T09:45:11.199Z,1.50
2019-03-04T09:47:43.522Z,1.83
2019-03-04T09:50:23.453Z,2.10
2019-03-04T09:53:06.253Z,1.90
2019-03-04T09:55:45.182Z,1.70
2019-03-04T09:58:29.963Z,2.43
2019-03-04T10:01:29.262Z,1.50
2019-03-04T10:04:37.138Z,2.07
2019-03-04T10:08:06.328Z,1.97
2019-03-04T10:11:25.628Z,1.57
2019-03-04T10:14:42.943Z,1.87
2019-03-04T10:17:42.104Z,1.80
2019-03-04T10:21:20.801Z,1.57
2019-03-04T10:24:29.811Z,1.40
2019-03-04T10:27:37.094Z,1.50
2019-03-04T10:30:33.625Z,1.40
2019-03-04T10:33:58.668Z,1.00
2019-03-04T10:37:22.376Z,1.43
2019-03-04T10:40:49.087Z,1.70
2019-03-04T10:44:12.342Z,1.03
2019-03-04T10:47:01.076Z,1.70
2019-03-04T10:49:41.217Z,1.07
2019-03-04T10:52:43.487Z,1.20
2019-03-04T10:55:14.310Z,0.80
2019-03-04T10:57:45.707Z,0.90
2019-03-04T11:00:20.002Z,1.20
2019-03-04T11:02:59.679Z,1.13
2019-03-04T11:05:41.505Z,1.10
2019-03-04T11:08:23.886Z,1.23
2019-03-04T11:10:57.729Z,0.90
2019-03-04T11:13:33.361Z,0.70
2019-03-04T11:16:14.777Z,0.90
2019-03-04T11:18:56.619Z,0.93
2019-03-04T11:21:27.432Z,1.07
2019-03-04T11:24:05.083Z,1.00
2019-03-04T11:26:37.830Z,0.87
2019-03-04T11:29:13.320Z,1.00
2019-03-04T11:31:44.473Z,1.10
2019-03-04T11:34:16.334Z,0.93
2019-03-04T11:36:47.124Z,0.80
2019-03-04T11:39:44.486Z,1.00
2019-03-04T11:42:21.623Z,1.00
2019-03-04T11:44:56.554Z,1.00
2019-03-04T11:47:33.902Z,1.40
2019-03-04T11:50:14.857Z,1.10
2019-03-04T11:53:01.612Z,1.13
2019-03-04T11:56:05.238Z,1.10
2019-03-04T11:59:13.064Z,1.23
2019-03-04T12:01:53.176Z,1.00
2019-03-04T12:04:36.691Z,0.93
2019-03-04T12:07:11.597Z,1.40
2019-03-04T12:10:02.716Z,1.37
2019-03-04T12:12:34.981Z,1.50
2019-03-04T12:15:06.612Z,1.00
2019-03-04T12:17:43.098Z,0.87
2019-03-04T12:20:22.796Z,1.07
2019-03-04T12:22:55.791Z,1.30
2019-03-04T12:25:27.103Z,1.00
2019-03-04T12:28:00.976Z,1.30
2019-03-04T12:30:38.794Z,1.00
2019-03-04T12:33:15.456Z,1.00
2019-03-04T12:35:52.883Z,1.70
2019-03-04T12:38:27.756Z,1.57
2019-03-04T12:41:03.763Z,0.73
2019-03-04T12:43:36.356Z,1.00
2019-03-04T12:46:10.437Z,0.80
2019-03-04T12:48:44.184Z,1.00
2019-03-04T12:51:23.500Z,1.00
2019-03-04T12:54:03.303Z,1.30
2019-03-04T12:56:36.469Z,1.40
2019-03-04T12:59:07.156Z,0.87
2019-03-04T13:01:38.224Z,0.70
2019-03-04T13:04:13.077Z,0.97
2019-03-04T13:06:46.356Z,1.20
2019-03-04T13:09:21.397Z,0.90
2019-03-04T13:11:53.334Z,0.97
2019-03-04T13:14:30.639Z,0.87
2019-03-04T13:17:06.072Z,1.00
2019-03-04T13:19:58.323Z,0.97
2019-03-04T13:22:37.290Z,1.13
2019-03-04T13:25:10.931Z,0.90
2019-03-04T13:27:46.099Z,1.40
2019-03-04T13:30:19.149Z,1.00
2019-03-04T13:33:08.101Z,1.03
2019-03-04T13:35:45.043Z,1.03
2019-03-04T13:38:19.766Z,0.70
2019-03-04T13:41:04.004Z,1.00
2019-03-04T13:43:46.438Z,1.07
2019-03-04T13:46:32.340Z,1.00
2019-03-04T13:49:06.429Z,1.10
2019-03-04T13:51:37.322Z,1.07
2019-03-04T13:54:16.195Z,1.20
2019-03-04T13:56:52.142Z,1.17
2019-03-04T13:59:26.162Z,0.83
2019-03-04T14:02:00.700Z,1.27
2019-03-04T14:04:37.658Z,1.83
2019-03-04T14:07:10.169Z,1.00
2019-03-04T14:09:44.249Z,1.07
2019-03-04T14:12:16.543Z,1.40
2019-03-04T14:14:50.444Z,1.03
2019-03-04T14:17:23.206Z,1.03
2019-03-04T14:19:57.567Z,1.67
2019-03-04T14:22:40.105Z,1.10
2019-03-04T14:25:07.817Z,1.30
2019-03-04T14:27:40.710Z,1.53
2019-03-04T14:30:17.625Z,1.23
2019-03-04T14:32:50.699Z,1.40
2019-03-04T14:35:24.939Z,0.97
2019-03-04T14:37:57.415Z,1.23
2019-03-04T14:40:31.836Z,1.20
2019-03-04T14:43:03.868Z,1.10
2019-03-04T14:45:37.314Z,1.00
2019-03-04T14:48:11.444Z,1.10
2019-03-04T14:50:49.741Z,1.50
2019-03-04T14:53:23.073Z,1.00
2019-03-04T14:55:54.632Z,1.73
2019-03-04T14:58:27.532Z,1.10
2019-03-04T15:00:58.300Z,0.83
2019-03-04T15:03:28.953Z,1.10
2019-03-04T15:06:07.139Z,1.50
2019-03-04T15:08:37.856Z,1.50
2019-03-04T15:11:16.025Z,1.13
2019-03-04T15:13:49.820Z,1.33
2019-03-04T15:16:20.408Z,1.17
2019-03-04T15:19:04.298Z,1.20
2019-03-04T15:21:37.432Z,1.10
2019-03-04T15:24:08.412Z,1.20
2019-03-04T15:26:46.523Z,1.13
2019-03-04T15:29:16.838Z,1.10
2019-03-04T15:31:48.223Z,1.57
2019-03-04T15:34:19.797Z,1.30
2019-03-04T15:36:50.979Z,1.23
2019-03-04T15:39:23.178Z,1.53
2019-03-04T15:42:01.373Z,1.23
2019-03-04T15:44:38.530Z,2.33
2019-03-04T15:47:16.413Z,2.00
2019-03-04T15:49:54.377Z,2.17
2019-03-04T15:52:25.852Z,1.80
2019-03-04T15:55:05.285Z,1.97
2019-03-04T15:57:40.288Z,1.87
2019-03-04T16:00:13.084Z,2.37
2019-03-04T16:02:48.749Z,1.67
2019-03-04T16:05:19.620Z,1.97
2019-03-04T16:07:50.626Z,1.20
2019-03-04T16:10:28.752Z,1.23
2019-03-04T16:12:58.930Z,1.23
2019-03-04T16:15:31.196Z,1.37
2019-03-04T16:18:11.709Z,1.50
2019-03-04T16:20:42.647Z,1.83
2019-03-04T16:23:15.052Z,1.50
2019-03-04T16:25:49.056Z,1.70
2019-03-04T16:28:22.591Z,1.47
2019-03-04T16:30:57.056Z,1.80
2019-03-04T16:33:39.418Z,1.73
2019-03-04T16:36:13.514Z,1.30
2019-03-04T16:38:44.210Z,0.60
2019-03-04T16:41:18.453Z,0.80
2019-03-04T16:43:49.857Z,0.87
2019-03-04T16:46:23.367Z,0.83
2019-03-04T16:48:54.553Z,0.90
2019-03-04T16:51:25.652Z,1.00
2019-03-04T16:54:00.087Z,1.10
2019-03-04T16:56:32.785Z,1.27
2019-03-04T16:59:10.571Z,1.40
2019-03-04T17:01:46.713Z,1.00
2019-03-04T17:04:14.570Z,0.90
2019-03-04T17:06:47.048Z,1.20
2019-03-04T17:09:20.117Z,0.90
2019-03-04T17:11:52.468Z,1.00
2019-03-04T17:14:26.589Z,1.07
2019-03-04T17:16:57.979Z,1.07
2019-03-04T17:19:32.374Z,0.90
2019-03-04T17:22:03.174Z,1.57
2019-03-04T17:24:37.503Z,1.33
2019-03-04T17:27:08.344Z,1.30
2019-03-04T17:29:43.768Z,0.97
2019-03-04T17:32:20.264Z,0.87
2019-03-04T17:34:56.715Z,1.10
2019-03-04T17:37:27.367Z,0.83
2019-03-04T17:40:01.265Z,1.23
2019-03-04T17:42:35.454Z,0.90
2019-03-04T17:45:06.259Z,1.10
2019-03-04T17:47:38.383Z,1.20
2019-03-04T17:50:15.792Z,1.00
2019-03-04T17:52:49.431Z,1.10
2019-03-04T17:55:20.332Z,1.10
2019-03-04T17:57:52.245Z,1.57
2019-03-04T18:00:25.347Z,1.50
2019-03-04T18:02:56.389Z,2.33
2019-03-04T18:05:33.474Z,1.67
2019-03-04T18:08:13.740Z,1.20
2019-03-04T18:10:47.096Z,1.00
2019-03-04T18:13:18.685Z,0.77
2019-03-04T18:15:51.948Z,0.50
2019-03-04T18:18:22.736Z,0.73
2019-03-04T18:21:03.097Z,0.50
2019-03-04T18:23:34.322Z,0.80
2019-03-04T18:26:22.102Z,0.97
2019-03-04T18:29:28.640Z,0.87
2019-03-04T18:32:14.846Z,0.70
2019-03-04T18:35:47.378Z,0.90
2019-03-04T18:38:40.952Z,1.00
2019-03-04T18:41:48.893Z,0.83
2019-03-04T18:45:12.448Z,1.00
2019-03-04T18:48:36.579Z,0.90
2019-03-04T18:51:17.541Z,1.00
2019-03-04T18:53:52.238Z,1.23
2019-03-04T18:56:28.564Z,1.90
2019-03-04T18:59:07.066Z,1.40
2019-03-04T19:01:52.611Z,1.57
2019-03-04T19:04:40.450Z,1.50
2019-03-04T19:07:18.182Z,1.73
2019-03-04T19:09:58.823Z,1.50
2019-03-04T19:12:30.105Z,1.50
2019-03-04T19:15:03.767Z,1.80
2019-03-04T19:17:35.479Z,2.10
2019-03-04T19:20:14.103Z,2.17
2019-03-04T19:22:48.090Z,1.80
2019-03-04T19:25:19.047Z,2.47
2019-03-04T19:27:54.749Z,2.13
2019-03-04T19:30:32.360Z,2.00
2019-03-04T19:33:03.199Z,2.40
2019-03-04T19:35:36.693Z,2.23
2019-03-04T19:38:24.706Z,2.33
2019-03-04T19:40:56.604Z,2.40
2019-03-04T19:43:42.592Z,3.07
2019-03-04T19:46:19.599Z,2.80
2019-03-04T19:49:00.959Z,2.90
2019-03-04T19:51:40.050Z,2.57
2019-03-04T19:54:07.608Z,2.33
2019-03-04T19:56:42.321Z,2.30
2019-03-04T19:59:14.219Z,3.07
2019-03-04T20:01:49.366Z,2.67
2019-03-04T20:04:21.043Z,2.73
2019-03-04T20:06:57.827Z,3.00
2019-03-04T20:09:31.850Z,3.00
2019-03-04T20:12:09.489Z,3.53
2019-03-04T20:14:44.182Z,3.03
2019-03-04T20:17:21.412Z,3.00
2019-03-04T20:19:54.358Z,3.10
2019-03-04T20:22:25.204Z,3.50
2019-03-04T20:25:01.275Z,3.30
2019-03-04T20:27:44.897Z,3.37
2019-03-04T20:30:15.748Z,3.47
2019-03-04T20:32:55.063Z,3.80
2019-03-04T20:35:26.803Z,4.27
2019-03-04T20:37:58.760Z,4.63
2019-03-04T20:40:33.238Z,3.87
2019-03-04T20:43:10.978Z,4.07
2019-03-04T20:45:42.140Z,3.27
2019-03-04T20:48:18.356Z,3.67
2019-03-04T20:50:50.257Z,3.40
2019-03-04T20:53:23.355Z,3.57
2019-03-04T20:56:00.892Z,3.40
2019-03-04T20:58:53.623Z,3.20
2019-03-04T21:01:36.217Z,3.93
2019-03-04T21:04:11.801Z,3.83
2019-03-04T21:06:58.122Z,4.37
2019-03-04T21:09:37.484Z,4.20
2019-03-04T21:12:14.785Z,4.20
2019-03-04T21:14:49.078Z,3.80
2019-03-04T21:17:36.902Z,4.07
2019-03-04T21:20:12.153Z,4.03
2019-03-04T21:22:48.961Z,3.73
2019-03-04T21:25:41.274Z,4.17
2019-03-04T21:28:25.102Z,5.00
2019-03-04T21:31:49.912Z,3.97
2019-03-04T21:35:23.683Z,4.43
2019-03-04T21:38:14.043Z,4.10
2019-03-04T21:41:28.637Z,4.30
2019-03-04T21:44:42.316Z,3.67
2019-03-04T21:47:24.455Z,4.00
2019-03-04T21:49:57.162Z,4.20
2019-03-04T21:52:53.543Z,4.07
2019-03-04T21:55:32.401Z,3.47
2019-03-04T21:58:09.095Z,4.17
2019-03-04T22:00:48.629Z,3.73
2019-03-04T22:03:32.005Z,3.97
2019-03-04T22:06:07.727Z,3.93
2019-03-04T22:08:45.080Z,3.97
2019-03-04T22:11:18.374Z,4.30
2019-03-04T22:13:57.198Z,3.70
2019-03-04T22:16:29.414Z,3.53
2019-03-04T22:19:05.148Z,3.20
2019-03-04T22:21:36.885Z,4.07
2019-03-04T22:24:12.422Z,4.50
2019-03-04T22:26:51.892Z,3.33
2019-03-04T22:29:30.464Z,4.10
2019-03-04T22:32:03.713Z,3.77
2019-03-04T22:34:38.352Z,3.47
2019-03-04T22:37:17.589Z,3.13
2019-03-04T22:39:48.819Z,3.73
2019-03-04T22:42:27.141Z,3.00
2019-03-04T22:45:06.513Z,3.03
2019-03-04T22:47:37.272Z,2.67
2019-03-04T22:50:13.159Z,2.83
2019-03-04T22:52:48.190Z,2.87
2019-03-04T22:55:22.926Z,3.27
2019-03-04T22:57:54.475Z,2.60
2019-03-04T23:01:36.343Z,3.07
2019-03-04T23:04:30.882Z,3.60
2019-03-04T23:07:09.081Z,2.63
2019-03-04T23:09:56.495Z,2.50
2019-03-04T23:12:37.202Z,2.50
2019-03-04T23:15:13.015Z,2.30
2019-03-04T23:17:44.828Z,2.47
2019-03-04T23:20:18.983Z,2.23
2019-03-04T23:22:50.294Z,2.40
2019-03-04T23:25:22.360Z,1.90
2019-03-04T23:27:53.585Z,2.47
2019-03-04T23:30:26.787Z,2.43
2019-03-04T23:32:59.113Z,2.03
2019-03-04T23:35:31.352Z,2.20
2019-03-04T23:38:05.771Z,2.37
2019-03-04T23:40:36.773Z,2.30
2019-03-04T23:43:16.545Z,2.50
2019-03-04T23:45:55.977Z,2.27
2019-03-04T23:48:29.086Z,1.83
2019-03-04T23:51:02.284Z,2.87
2019-03-04T23:53:34.885Z,2.67
2019-03-04T23:56:05.989Z,2.40
2019-03-04T23:58:40.681Z,2.83
